createdAt,value
2023-04-27T00:01:48.772Z,100722.72
2023-04-27T00:04:16.891Z,100718.91
2023-04-27T00:06:45.048Z,100723.38
2023-04-27T00:09:13.042Z,100717.97
2023-04-27T00:11:41.184Z,100710.97
2023-04-27T00:14:09.053Z,100717.38
2023-04-27T00:16:37.100Z,100711.50
2023-04-27T00:19:04.762Z,100708.91
2023-04-27T00:21:32.749Z,100708.19
2023-04-27T00:24:00.407Z,100703.38
2023-04-27T00:26:29.563Z,100699.34
2023-04-27T00:28:57.302Z,100713.38
2023-04-27T00:31:26.876Z,100703.00
2023-04-27T00:33:54.482Z,100708.13
2023-04-27T00:36:22.480Z,100707.91
2023-04-27T00:38:50.101Z,100711.03
2023-04-27T00:41:18.087Z,100706.38
2023-04-27T00:43:46.323Z,100708.44
2023-04-27T00:46:14.859Z,100711.47
2023-04-27T00:48:43.056Z,100712.72
2023-04-27T00:51:11.082Z,100709.50
2023-04-27T00:53:39.026Z,100713.09
2023-04-27T00:56:07.609Z,100713.88
2023-04-27T00:58:35.353Z,100715.81
2023-04-27T01:01:06.002Z,100713.47
2023-04-27T01:03:33.841Z,100698.13
2023-04-27T01:06:02.068Z,100698.13
2023-04-27T01:08:29.840Z,100699.59
2023-04-27T01:10:57.899Z,100694.06
2023-04-27T01:13:25.636Z,100694.06
2023-04-27T01:15:53.691Z,100699.94
2023-04-27T01:18:21.291Z,100695.09
2023-04-27T01:20:49.341Z,100691.53
2023-04-27T01:23:17.521Z,100690.97
2023-04-27T01:25:45.763Z,100692.88
2023-04-27T01:28:13.428Z,100692.09
2023-04-27T01:30:41.405Z,100694.22
2023-04-27T01:33:09.060Z,100696.00
2023-04-27T01:35:37.295Z,100698.59
2023-04-27T01:38:04.902Z,100697.69
2023-04-27T01:40:32.863Z,100709.13
2023-04-27T01:43:01.178Z,100711.34
2023-04-27T01:45:31.061Z,100712.66
2023-04-27T01:48:00.934Z,100704.53
2023-04-27T01:50:28.970Z,100721.72
2023-04-27T01:52:56.684Z,100722.41
2023-04-27T01:55:24.587Z,100720.16
2023-04-27T01:57:52.288Z,100726.88
2023-04-27T02:00:20.597Z,100719.13
2023-04-27T02:02:48.347Z,100722.78
2023-04-27T02:05:17.658Z,100729.09
2023-04-27T02:07:47.285Z,100732.56
2023-04-27T02:10:15.267Z,100729.97
2023-04-27T02:12:42.917Z,100727.31
2023-04-27T02:15:11.126Z,100735.34
2023-04-27T02:17:39.755Z,100728.28
2023-04-27T02:20:08.121Z,100745.00
2023-04-27T02:22:35.803Z,100739.34
2023-04-27T02:25:05.639Z,100748.56
2023-04-27T02:27:33.424Z,100748.06
2023-04-27T02:30:05.492Z,100750.00
2023-04-27T02:32:33.776Z,100748.19
2023-04-27T02:35:02.242Z,100753.94
2023-04-27T02:37:30.815Z,100758.50
2023-04-27T02:39:58.825Z,100764.75
2023-04-27T02:42:26.683Z,100766.91
2023-04-27T02:44:54.715Z,100758.94
2023-04-27T02:47:22.314Z,100771.25
2023-04-27T02:49:50.261Z,100773.53
2023-04-27T02:52:17.913Z,100776.47
2023-04-27T02:54:46.006Z,100770.31
2023-04-27T02:57:13.703Z,100770.22
2023-04-27T02:59:41.713Z,100765.13
2023-04-27T03:02:09.638Z,100768.66
2023-04-27T03:04:39.005Z,100766.00
2023-04-27T03:07:06.756Z,100769.84
2023-04-27T03:09:34.739Z,100773.75
2023-04-27T03:12:02.823Z,100769.06
2023-04-27T03:14:30.838Z,100771.19
2023-04-27T03:16:58.640Z,100781.88
2023-04-27T03:19:26.597Z,100781.09
2023-04-27T03:21:54.158Z,100784.44
2023-04-27T03:24:25.688Z,100783.41
2023-04-27T03:26:53.429Z,100782.16
2023-04-27T03:29:22.328Z,100777.28
2023-04-27T03:31:50.054Z,100781.06
2023-04-27T03:34:18.039Z,100787.84
2023-04-27T03:36:46.290Z,100788.66
2023-04-27T03:39:14.438Z,100795.66
2023-04-27T03:41:42.349Z,100784.28
2023-04-27T03:44:12.725Z,100778.91
2023-04-27T03:46:40.415Z,100778.13
2023-04-27T03:49:08.957Z,100776.00
2023-04-27T03:51:38.534Z,100778.41
2023-04-27T03:54:06.394Z,100783.16
2023-04-27T03:56:34.076Z,100779.69
2023-04-27T03:59:02.048Z,100778.94
2023-04-27T04:01:34.395Z,100788.50
2023-04-27T04:04:02.607Z,100786.44
2023-04-27T04:06:33.120Z,100777.13
2023-04-27T04:09:03.644Z,100783.66
2023-04-27T04:11:31.771Z,100781.44
2023-04-27T04:14:01.275Z,100790.34
2023-04-27T04:16:28.882Z,100789.16
2023-04-27T04:18:56.685Z,100796.63
2023-04-27T04:21:24.873Z,100792.28
2023-04-27T04:23:53.061Z,100804.94
2023-04-27T04:26:23.679Z,100807.78
2023-04-27T04:28:52.577Z,100810.16
2023-04-27T04:31:21.972Z,100810.72
2023-04-27T04:33:50.695Z,100814.91
2023-04-27T04:36:18.664Z,100818.13
2023-04-27T04:38:47.402Z,100818.81
2023-04-27T04:41:16.693Z,100819.66
2023-04-27T04:43:44.602Z,100820.06
2023-04-27T04:46:12.087Z,100818.19
2023-04-27T04:48:40.066Z,100823.44
2023-04-27T04:51:07.724Z,100824.88
2023-04-27T04:53:37.548Z,100832.03
2023-04-27T04:56:12.313Z,100827.66
2023-04-27T04:58:40.538Z,100827.13
2023-04-27T05:01:08.640Z,100839.16
2023-04-27T05:03:36.742Z,100843.88
2023-04-27T05:06:04.493Z,100840.88
2023-04-27T05:08:32.442Z,100846.81
2023-04-27T05:10:59.966Z,100857.97
2023-04-27T05:13:28.284Z,100862.66
2023-04-27T05:15:55.862Z,100859.78
2023-04-27T05:18:23.879Z,100865.59
2023-04-27T05:20:51.379Z,100860.25
2023-04-27T05:23:19.235Z,100867.47
2023-04-27T05:25:46.665Z,100863.34
2023-04-27T05:28:14.689Z,100861.59
2023-04-27T05:30:42.628Z,100865.38
2023-04-27T05:33:10.553Z,100867.16
2023-04-27T05:35:38.038Z,100863.34
2023-04-27T05:38:05.955Z,100870.97
2023-04-27T05:40:33.492Z,100877.66
2023-04-27T05:43:05.699Z,100878.41
2023-04-27T05:45:33.582Z,100878.97
2023-04-27T05:48:01.569Z,100883.22
2023-04-27T05:50:29.146Z,100881.69
2023-04-27T05:52:57.019Z,100887.53
2023-04-27T05:55:24.533Z,100883.72
2023-04-27T05:58:06.682Z,100895.34
2023-04-27T06:00:37.385Z,100890.50
2023-04-27T06:03:05.378Z,100895.09
2023-04-27T06:05:34.723Z,100889.75
2023-04-27T06:08:02.915Z,100888.41
2023-04-27T06:10:30.642Z,100901.63
2023-04-27T06:12:58.425Z,100899.97
2023-04-27T06:15:26.811Z,100894.84
2023-04-27T06:17:54.728Z,100894.94
2023-04-27T06:20:22.391Z,100893.13
2023-04-27T06:22:49.795Z,100902.53
2023-04-27T06:25:17.632Z,100902.34
2023-04-27T06:27:45.198Z,100903.56
2023-04-27T06:30:13.165Z,100907.91
2023-04-27T06:32:42.726Z,100912.22
2023-04-27T06:35:11.106Z,100914.06
2023-04-27T06:37:38.690Z,100913.53
2023-04-27T06:40:07.123Z,100917.03
2023-04-27T06:42:35.000Z,100911.66
2023-04-27T06:45:02.957Z,100914.22
2023-04-27T06:47:30.632Z,100921.66
2023-04-27T06:49:58.485Z,100925.94
2023-04-27T06:52:26.108Z,100922.72
2023-04-27T06:54:54.257Z,100923.13
2023-04-27T06:57:21.947Z,100919.19
2023-04-27T06:59:49.785Z,100924.50
2023-04-27T07:02:17.659Z,100933.38
2023-04-27T07:04:46.971Z,100927.09
2023-04-27T07:07:14.664Z,100922.78
2023-04-27T07:09:43.845Z,100920.88
2023-04-27T07:12:11.510Z,100918.72
2023-04-27T07:14:39.621Z,100919.72
2023-04-27T07:17:07.118Z,100927.47
2023-04-27T07:19:34.966Z,100926.56
2023-04-27T07:22:02.645Z,100921.25
2023-04-27T07:24:30.470Z,100918.78
2023-04-27T07:26:58.235Z,100924.38
2023-04-27T07:29:29.521Z,100925.22
2023-04-27T07:31:57.178Z,100924.19
2023-04-27T07:34:25.168Z,100919.31
2023-04-27T07:36:54.748Z,100922.44
2023-04-27T07:39:22.828Z,100922.78
2023-04-27T07:41:51.896Z,100925.16
2023-04-27T07:44:19.910Z,100923.50
2023-04-27T07:46:49.155Z,100925.09
2023-04-27T07:49:17.197Z,100930.75
2023-04-27T07:51:44.724Z,100925.09
2023-04-27T07:54:12.657Z,100929.53
2023-04-27T07:56:43.321Z,100927.53
2023-04-27T07:59:11.746Z,100929.88
2023-04-27T08:01:39.751Z,100937.81
2023-04-27T08:04:07.909Z,100940.78
2023-04-27T08:06:36.543Z,100942.50
2023-04-27T08:09:05.248Z,100946.13
2023-04-27T08:11:32.834Z,100949.53
2023-04-27T08:14:00.669Z,100944.13
2023-04-27T08:16:28.884Z,100943.53
2023-04-27T08:18:58.538Z,100943.34
2023-04-27T08:21:28.757Z,100951.66
2023-04-27T08:23:56.697Z,100945.56
2023-04-27T08:26:26.276Z,100947.19
2023-04-27T08:28:56.497Z,100952.78
2023-04-27T08:31:24.654Z,100963.09
2023-04-27T08:33:53.133Z,100966.59
2023-04-27T08:36:29.327Z,100951.97
2023-04-27T08:38:57.174Z,100960.34
2023-04-27T08:41:24.754Z,100959.66
2023-04-27T08:43:53.804Z,100964.63
2023-04-27T08:46:22.080Z,100976.38
2023-04-27T08:48:51.283Z,100966.25
2023-04-27T08:51:18.833Z,100973.34
2023-04-27T08:53:51.765Z,100972.81
2023-04-27T08:56:19.828Z,100975.50
2023-04-27T08:58:47.624Z,100978.84
2023-04-27T09:01:15.250Z,100980.09
2023-04-27T09:03:43.333Z,100976.22
2023-04-27T09:06:11.384Z,100980.91
2023-04-27T09:08:47.468Z,100983.75
2023-04-27T09:11:16.148Z,100974.63
2023-04-27T09:13:45.662Z,100962.03
2023-04-27T09:16:17.303Z,100967.44
2023-04-27T09:18:45.879Z,100966.16
2023-04-27T09:21:22.212Z,100973.25
2023-04-27T09:23:50.144Z,100967.78
2023-04-27T09:26:22.365Z,100961.16
2023-04-27T09:28:51.558Z,100956.63
2023-04-27T09:31:19.257Z,100967.16
2023-04-27T09:33:54.901Z,100971.66
2023-04-27T09:36:22.829Z,100955.81
2023-04-27T09:38:52.779Z,100955.97
2023-04-27T09:41:20.228Z,100951.38
2023-04-27T09:43:48.099Z,100955.28
2023-04-27T09:46:16.101Z,100950.72
2023-04-27T09:48:43.928Z,100951.06
2023-04-27T09:51:11.513Z,100947.16
2023-04-27T09:53:45.293Z,100944.84
2023-04-27T09:56:28.553Z,100945.53
2023-04-27T09:59:15.493Z,100942.50
2023-04-27T10:01:47.672Z,100938.97
2023-04-27T10:04:34.663Z,100938.59
2023-04-27T10:07:02.276Z,100939.78
2023-04-27T10:09:51.524Z,100940.59
2023-04-27T10:12:20.658Z,100931.50
2023-04-27T10:14:56.075Z,100934.59
2023-04-27T10:17:31.469Z,100933.84
2023-04-27T10:20:10.076Z,100929.66
2023-04-27T10:22:44.868Z,100932.00
2023-04-27T10:25:16.667Z,100935.53
2023-04-27T10:27:58.253Z,100941.81
2023-04-27T10:30:27.574Z,100932.03
2023-04-27T10:32:56.579Z,100923.78
2023-04-27T10:35:34.869Z,100923.34
2023-04-27T10:38:06.671Z,100925.28
2023-04-27T10:40:36.619Z,100921.59
2023-04-27T10:43:10.496Z,100917.88
2023-04-27T10:45:38.544Z,100924.59
2023-04-27T10:48:06.246Z,100918.28
2023-04-27T10:50:34.247Z,100920.75
2023-04-27T10:53:03.922Z,100921.34
2023-04-27T10:55:33.320Z,100920.28
2023-04-27T10:58:02.134Z,100924.59
2023-04-27T11:00:32.631Z,100913.81
2023-04-27T11:03:17.246Z,100922.78
2023-04-27T11:05:47.111Z,100913.19
2023-04-27T11:08:16.288Z,100919.13
2023-04-27T11:10:50.225Z,100908.53
2023-04-27T11:13:19.296Z,100911.00
2023-04-27T11:15:58.143Z,100915.06
2023-04-27T11:18:26.735Z,100907.00
2023-04-27T11:21:07.865Z,100909.44
2023-04-27T11:23:38.325Z,100901.63
2023-04-27T11:26:19.561Z,100907.88
2023-04-27T11:29:00.169Z,100906.53
2023-04-27T11:31:38.355Z,100915.56
2023-04-27T11:34:07.954Z,100910.94
2023-04-27T11:36:36.447Z,100903.88
2023-04-27T11:39:06.596Z,100900.47
2023-04-27T11:41:35.884Z,100902.03
2023-04-27T11:44:07.848Z,100900.72
2023-04-27T11:46:37.038Z,100905.59
2023-04-27T11:49:05.170Z,100901.16
2023-04-27T11:51:33.667Z,100902.16
2023-04-27T11:54:05.148Z,100899.56
2023-04-27T11:56:34.887Z,100896.88
2023-04-27T11:59:02.490Z,100908.94
2023-04-27T12:01:37.481Z,100909.59
2023-04-27T12:04:05.867Z,100905.78
2023-04-27T12:06:34.046Z,100906.66
2023-04-27T12:09:01.849Z,100898.78
2023-04-27T12:11:29.631Z,100899.88
2023-04-27T12:13:57.589Z,100887.78
2023-04-27T12:16:25.570Z,100891.97
2023-04-27T12:18:53.500Z,100894.31
2023-04-27T12:21:21.495Z,100897.72
2023-04-27T12:23:48.997Z,100904.50
2023-04-27T12:26:16.816Z,100901.25
2023-04-27T12:28:44.371Z,100899.66
2023-04-27T12:31:14.371Z,100896.91
2023-04-27T12:33:42.190Z,100903.25
2023-04-27T12:36:10.072Z,100895.84
2023-04-27T12:38:37.724Z,100898.91
2023-04-27T12:41:05.866Z,100902.59
2023-04-27T12:43:33.449Z,100901.28
2023-04-27T12:46:01.402Z,100898.63
2023-04-27T12:48:29.084Z,100906.94
2023-04-27T12:50:57.019Z,100896.72
2023-04-27T12:53:24.672Z,100903.03
2023-04-27T12:55:53.614Z,100902.47
2023-04-27T12:58:21.747Z,100890.19
2023-04-27T13:00:49.581Z,100893.63
2023-04-27T13:03:17.373Z,100882.16
2023-04-27T13:05:45.850Z,100891.16
2023-04-27T13:08:13.461Z,100895.16
2023-04-27T13:10:42.311Z,100882.47
2023-04-27T13:13:09.899Z,100879.06
2023-04-27T13:15:38.824Z,100885.06
2023-04-27T13:18:06.850Z,100891.13
2023-04-27T13:20:34.836Z,100873.91
2023-04-27T13:23:03.145Z,100873.41
2023-04-27T13:25:31.170Z,100872.16
2023-04-27T13:27:58.762Z,100864.97
2023-04-27T13:30:26.651Z,100862.88
2023-04-27T13:32:54.299Z,100863.13
2023-04-27T13:35:23.937Z,100860.00
2023-04-27T13:37:53.988Z,100862.91
2023-04-27T13:40:22.279Z,100861.25
2023-04-27T13:42:49.818Z,100860.69
2023-04-27T13:45:17.750Z,100873.53
2023-04-27T13:47:45.418Z,100869.16
2023-04-27T13:50:13.312Z,100856.50
2023-04-27T13:52:41.088Z,100854.56
2023-04-27T13:55:11.001Z,100853.78
2023-04-27T13:57:38.550Z,100850.31
2023-04-27T14:00:11.731Z,100849.97
2023-04-27T14:02:39.697Z,100841.13
2023-04-27T14:05:08.793Z,100848.00
2023-04-27T14:07:36.273Z,100847.91
2023-04-27T14:10:04.744Z,100841.72
2023-04-27T14:12:32.441Z,100841.38
2023-04-27T14:15:02.650Z,100845.03
2023-04-27T14:17:30.224Z,100845.03
2023-04-27T14:19:59.424Z,100839.72
2023-04-27T14:22:26.975Z,100837.44
2023-04-27T14:24:56.672Z,100840.97
2023-04-27T14:27:24.362Z,100841.22
2023-04-27T14:29:52.208Z,100839.47
2023-04-27T14:32:19.911Z,100825.03
2023-04-27T14:34:49.078Z,100826.38
2023-04-27T14:37:16.660Z,100830.06
2023-04-27T14:39:45.380Z,100828.69
2023-04-27T14:42:13.118Z,100825.84
2023-04-27T14:44:41.115Z,100829.97
2023-04-27T14:47:08.698Z,100830.25
2023-04-27T14:49:36.725Z,100824.91
2023-04-27T14:52:06.776Z,100830.09
2023-04-27T14:54:35.781Z,100824.78
2023-04-27T14:57:03.425Z,100815.56
2023-04-27T14:59:32.644Z,100821.63
2023-04-27T15:02:00.702Z,100813.69
2023-04-27T15:04:28.834Z,100814.38
2023-04-27T15:06:56.541Z,100815.94
2023-04-27T15:09:25.619Z,100818.81
2023-04-27T15:11:53.227Z,100817.81
2023-04-27T15:14:21.086Z,100813.81
2023-04-27T15:16:49.682Z,100813.13
2023-04-27T15:19:17.597Z,100807.16
2023-04-27T15:21:45.131Z,100814.50
2023-04-27T15:24:13.034Z,100810.78
2023-04-27T15:26:41.369Z,100811.88
2023-04-27T15:29:09.234Z,100808.91
2023-04-27T15:31:37.253Z,100815.69
2023-04-27T15:34:06.341Z,100815.41
2023-04-27T15:36:34.789Z,100814.59
2023-04-27T15:39:02.710Z,100810.75
2023-04-27T15:41:30.219Z,100816.78
2023-04-27T15:43:59.277Z,100815.69
2023-04-27T15:46:26.890Z,100810.56
2023-04-27T15:48:54.819Z,100814.03
2023-04-27T15:51:22.346Z,100813.91
2023-04-27T15:53:50.206Z,100809.81
2023-04-27T15:56:17.803Z,100817.84
2023-04-27T15:58:47.094Z,100819.84
2023-04-27T16:01:14.727Z,100816.91
2023-04-27T16:03:53.237Z,100821.38
2023-04-27T16:06:21.022Z,100813.69
2023-04-27T16:08:49.012Z,100817.44
2023-04-27T16:11:20.036Z,100817.38
2023-04-27T16:13:47.937Z,100821.59
2023-04-27T16:16:15.738Z,100821.31
2023-04-27T16:18:43.820Z,100823.41
2023-04-27T16:21:11.520Z,100826.59
2023-04-27T16:23:39.295Z,100821.19
2023-04-27T16:26:06.874Z,100822.69
2023-04-27T16:28:35.069Z,100828.72
2023-04-27T16:31:02.622Z,100826.72
2023-04-27T16:33:30.746Z,100836.91
2023-04-27T16:35:58.237Z,100835.78
2023-04-27T16:38:26.170Z,100837.72
2023-04-27T16:40:56.217Z,100837.63
2023-04-27T16:43:25.560Z,100830.28
2023-04-27T16:45:53.160Z,100840.91
2023-04-27T16:48:22.542Z,100836.25
2023-04-27T16:50:50.001Z,100838.78
2023-04-27T16:53:21.203Z,100835.44
2023-04-27T16:55:48.909Z,100843.47
2023-04-27T16:58:16.792Z,100837.38
2023-04-27T17:00:44.355Z,100852.16
2023-04-27T17:03:12.358Z,100852.13
2023-04-27T17:05:39.980Z,100852.25
2023-04-27T17:08:08.867Z,100852.56
2023-04-27T17:10:36.979Z,100845.91
2023-04-27T17:13:05.144Z,100859.38
2023-04-27T17:15:32.685Z,100856.31
2023-04-27T17:18:02.731Z,100853.31
2023-04-27T17:20:30.592Z,100851.00
2023-04-27T17:22:58.434Z,100851.81
2023-04-27T17:25:25.940Z,100860.00
2023-04-27T17:27:53.813Z,100862.31
2023-04-27T17:30:21.422Z,100868.19
2023-04-27T17:32:49.316Z,100856.88
2023-04-27T17:35:16.882Z,100863.84
2023-04-27T17:37:44.759Z,100869.22
2023-04-27T17:40:12.891Z,100861.47
2023-04-27T17:42:40.768Z,100862.09
2023-04-27T17:45:11.764Z,100868.69
2023-04-27T17:47:39.565Z,100861.22
2023-04-27T17:50:07.600Z,100864.66
2023-04-27T17:52:35.926Z,100866.31
2023-04-27T17:55:03.505Z,100873.59
2023-04-27T17:57:31.261Z,100873.00
2023-04-27T17:59:58.858Z,100873.94
2023-04-27T18:02:27.018Z,100870.97
2023-04-27T18:04:54.670Z,100875.78
2023-04-27T18:07:23.488Z,100883.91
2023-04-27T18:09:51.121Z,100869.00
2023-04-27T18:12:19.059Z,100877.75
2023-04-27T18:14:46.608Z,100880.00
2023-04-27T18:17:14.546Z,100887.38
2023-04-27T18:19:42.069Z,100876.44
2023-04-27T18:22:10.198Z,100889.75
2023-04-27T18:24:37.742Z,100885.47
2023-04-27T18:27:05.676Z,100893.03
2023-04-27T18:29:33.231Z,100897.91
2023-04-27T18:32:01.920Z,100897.63
2023-04-27T18:34:29.505Z,100904.47
2023-04-27T18:36:57.449Z,100906.28
2023-04-27T18:39:25.151Z,100902.44
2023-04-27T18:41:53.190Z,100903.09
2023-04-27T18:44:20.798Z,100901.09
2023-04-27T18:46:48.693Z,100903.22
2023-04-27T18:49:16.571Z,100915.78
2023-04-27T18:51:45.585Z,100915.75
2023-04-27T18:54:13.838Z,100925.66
2023-04-27T18:56:41.805Z,100929.03
2023-04-27T18:59:09.321Z,100935.19
2023-04-27T19:01:38.231Z,100946.97
2023-04-27T19:04:06.799Z,100949.09
2023-04-27T19:06:34.755Z,100951.13
2023-04-27T19:09:02.312Z,100961.75
2023-04-27T19:11:30.466Z,100963.75
2023-04-27T19:13:59.019Z,100962.19
2023-04-27T19:16:27.131Z,100966.59
2023-04-27T19:18:54.725Z,100968.09
2023-04-27T19:21:22.557Z,100960.06
2023-04-27T19:23:50.275Z,100961.56
2023-04-27T19:26:18.160Z,100971.25
2023-04-27T19:28:45.751Z,100969.81
2023-04-27T19:31:13.955Z,100985.22
2023-04-27T19:36:13.651Z,100993.16
2023-04-27T19:38:41.469Z,100999.22
2023-04-27T19:41:10.861Z,100998.97
2023-04-27T19:43:38.496Z,101003.91
2023-04-27T19:46:06.467Z,101010.72
2023-04-27T19:48:34.198Z,101015.69
2023-04-27T19:51:02.088Z,101008.94
2023-04-27T19:53:30.220Z,101020.50
2023-04-27T19:56:00.587Z,101022.28
2023-04-27T19:58:28.407Z,101018.75
2023-04-27T20:00:56.389Z,101018.44
2023-04-27T20:03:24.179Z,101030.34
2023-04-27T20:05:52.808Z,101030.34
2023-04-27T20:08:20.794Z,101041.38
2023-04-27T20:10:48.579Z,101029.16
2023-04-27T20:13:16.213Z,101036.06
2023-04-27T20:15:44.634Z,101026.91
2023-04-27T20:18:12.464Z,101031.75
2023-04-27T20:20:42.354Z,101034.59
2023-04-27T20:23:10.010Z,101036.31
2023-04-27T20:25:38.240Z,101030.44
2023-04-27T20:28:05.898Z,101027.97
2023-04-27T20:30:33.714Z,101026.53
2023-04-27T20:33:03.794Z,101035.81
2023-04-27T20:35:31.842Z,101037.66
2023-04-27T20:38:00.338Z,101031.75
2023-04-27T20:40:28.279Z,101037.88
2023-04-27T20:42:55.739Z,101045.66
2023-04-27T20:45:24.038Z,101042.84
2023-04-27T20:47:52.347Z,101040.25
2023-04-27T20:50:20.209Z,101046.50
2023-04-27T20:52:47.700Z,101040.06
2023-04-27T20:55:16.773Z,101034.38
2023-04-27T20:57:44.399Z,101034.44
2023-04-27T21:00:13.197Z,101041.91
2023-04-27T21:02:41.141Z,101046.16
2023-04-27T21:05:09.167Z,101045.53
2023-04-27T21:07:36.894Z,101050.31
2023-04-27T21:10:07.154Z,101041.47
2023-04-27T21:12:34.823Z,101051.88
2023-04-27T21:15:04.084Z,101042.47
2023-04-27T21:17:31.678Z,101042.06
2023-04-27T21:19:59.510Z,101045.53
2023-04-27T21:22:27.131Z,101043.13
2023-04-27T21:24:55.009Z,101049.44
2023-04-27T21:27:22.682Z,101044.97
2023-04-27T21:29:50.652Z,101040.28
2023-04-27T21:32:18.247Z,101048.41
2023-04-27T21:34:46.054Z,101044.59
2023-04-27T21:37:13.632Z,101049.47
2023-04-27T21:39:41.626Z,101042.81
2023-04-27T21:42:09.253Z,101043.63
2023-04-27T21:44:37.085Z,101050.25
2023-04-27T21:47:04.608Z,101038.22
2023-04-27T21:49:32.450Z,101040.91
2023-04-27T21:51:59.963Z,101046.06
2023-04-27T21:54:27.864Z,101042.16
2023-04-27T21:56:55.407Z,101043.94
2023-04-27T21:59:23.278Z,101041.75
2023-04-27T22:01:51.085Z,101029.81
2023-04-27T22:04:20.492Z,101029.03
2023-04-27T22:06:49.010Z,101028.13
2023-04-27T22:09:17.167Z,101032.53
2023-04-27T22:11:44.875Z,101037.31
2023-04-27T22:14:12.920Z,101038.09
2023-04-27T22:16:40.732Z,101044.53
2023-04-27T22:19:09.760Z,101053.84
2023-04-27T22:21:37.736Z,101048.72
2023-04-27T22:24:05.981Z,101052.97
2023-04-27T22:26:33.557Z,101057.69
2023-04-27T22:29:01.477Z,101048.44
2023-04-27T22:31:30.332Z,101047.28
2023-04-27T22:33:58.703Z,101054.16
2023-04-27T22:36:26.875Z,101053.63
2023-04-27T22:38:54.861Z,101060.78
2023-04-27T22:41:22.658Z,101063.78
2023-04-27T22:43:50.548Z,101055.06
2023-04-27T22:46:18.054Z,101059.50
2023-04-27T22:48:47.662Z,101056.16
2023-04-27T22:51:15.098Z,101062.97
2023-04-27T22:53:42.983Z,101078.88
2023-04-27T22:56:10.652Z,101070.97
2023-04-27T22:58:39.027Z,101072.75
2023-04-27T23:01:07.070Z,101080.28
2023-04-27T23:03:36.289Z,101071.69
2023-04-27T23:06:05.250Z,101066.78
2023-04-27T23:08:34.172Z,101070.00
2023-04-27T23:11:03.098Z,101069.44
2023-04-27T23:13:32.004Z,101062.09
2023-04-27T23:15:59.652Z,101060.41
2023-04-27T23:18:28.545Z,101063.00
2023-04-27T23:20:56.064Z,101063.09
2023-04-27T23:23:24.027Z,101066.78
2023-04-27T23:25:51.587Z,101061.09
2023-04-27T23:28:19.694Z,101069.34
2023-04-27T23:30:56.910Z,101067.25
2023-04-27T23:33:24.854Z,101066.97
2023-04-27T23:35:53.313Z,101067.06
2023-04-27T23:38:23.195Z,101072.09
2023-04-27T23:40:50.775Z,101059.97
2023-04-27T23:43:18.615Z,101058.28
2023-04-27T23:45:52.883Z,101060.09
2023-04-27T23:48:21.862Z,101058.75
2023-04-27T23:50:49.595Z,101056.03
2023-04-27T23:53:18.419Z,101055.22
2023-04-27T23:55:45.946Z,101052.81
2023-04-27T23:58:13.728Z,101048.09
